createdAt,value
2022-11-15T00:00:58.454Z,6.75
2022-11-15T00:03:27.283Z,7.15
2022-11-15T00:05:54.552Z,7.72
2022-11-15T00:08:21.499Z,7.85
2022-11-15T00:11:02.260Z,7.78
2022-11-15T00:13:30.291Z,7.18
2022-11-15T00:16:01.780Z,6.68
2022-11-15T00:18:29.570Z,7.20
2022-11-15T00:20:57.240Z,6.90
2022-11-15T00:23:24.169Z,6.78
2022-11-15T00:25:58.909Z,7.75
2022-11-15T00:28:26.347Z,6.85
2022-11-15T00:30:53.733Z,6.97
2022-11-15T00:33:20.660Z,7.25
2022-11-15T00:35:47.583Z,6.55
2022-11-15T00:38:14.537Z,6.93
2022-11-15T00:40:41.426Z,7.07
2022-11-15T00:43:08.215Z,7.47
2022-11-15T00:45:35.205Z,6.82
2022-11-15T00:48:02.047Z,7.25
2022-11-15T00:50:28.977Z,6.75
2022-11-15T00:52:55.819Z,7.60
2022-11-15T00:55:22.596Z,7.72
2022-11-15T00:57:49.521Z,7.50
2022-11-15T01:00:16.758Z,7.75
2022-11-15T01:02:43.523Z,7.45
2022-11-15T01:05:10.427Z,7.72
2022-11-15T01:07:37.367Z,7.15
2022-11-15T01:10:05.491Z,7.22
2022-11-15T01:12:32.952Z,7.20
2022-11-15T01:14:59.787Z,6.68
2022-11-15T01:17:26.689Z,7.55
2022-11-15T01:19:53.620Z,7.40
2022-11-15T01:22:20.480Z,7.00
2022-11-15T01:24:47.352Z,7.15
2022-11-15T01:27:14.181Z,6.78
2022-11-15T01:29:41.003Z,7.93
2022-11-15T01:32:07.814Z,6.43
2022-11-15T01:34:34.994Z,6.50
2022-11-15T01:37:02.046Z,7.05
2022-11-15T01:39:28.946Z,6.53
2022-11-15T01:41:56.092Z,6.30
2022-11-15T01:44:32.310Z,6.53
2022-11-15T01:47:02.666Z,5.75
2022-11-15T01:49:33.440Z,6.40
2022-11-15T01:52:02.143Z,6.45
2022-11-15T01:54:29.306Z,6.47
2022-11-15T01:57:16.423Z,6.10
2022-11-15T01:59:45.967Z,6.43
2022-11-15T02:02:13.275Z,6.88
2022-11-15T02:04:57.988Z,6.32
2022-11-15T02:07:24.936Z,5.75
2022-11-15T02:09:52.754Z,6.03
2022-11-15T02:12:22.315Z,7.85
2022-11-15T02:14:54.423Z,7.93
2022-11-15T02:17:37.187Z,7.57
2022-11-15T02:20:35.556Z,6.95
2022-11-15T02:23:46.878Z,7.10
2022-11-15T02:26:19.805Z,6.50
2022-11-15T02:29:09.905Z,7.07
2022-11-15T02:32:03.522Z,5.38
2022-11-15T02:34:52.522Z,7.22
2022-11-15T02:37:28.479Z,6.03
2022-11-15T02:40:07.433Z,5.88
2022-11-15T02:42:56.878Z,6.10
2022-11-15T02:45:40.412Z,7.18
2022-11-15T02:48:10.274Z,6.07
2022-11-15T02:50:37.378Z,5.22
2022-11-15T02:53:04.330Z,6.55
2022-11-15T02:55:31.175Z,5.93
2022-11-15T02:57:58.012Z,6.47
2022-11-15T03:00:25.207Z,5.93
2022-11-15T03:03:05.387Z,6.32
2022-11-15T03:05:50.732Z,5.15
2022-11-15T03:08:26.895Z,6.28
2022-11-15T03:11:15.113Z,6.65
2022-11-15T03:13:57.870Z,5.65
2022-11-15T03:16:37.385Z,5.55
2022-11-15T03:19:15.660Z,6.70
2022-11-15T03:21:42.965Z,5.40
2022-11-15T03:24:11.706Z,5.82
2022-11-15T03:26:41.628Z,5.97
2022-11-15T03:29:32.756Z,6.45
2022-11-15T03:32:09.031Z,5.55
2022-11-15T03:35:01.685Z,5.60
2022-11-15T03:38:07.778Z,5.43
2022-11-15T03:40:50.377Z,5.65
2022-11-15T03:43:37.644Z,5.65
2022-11-15T03:46:24.569Z,4.68
2022-11-15T03:48:57.388Z,5.10
2022-11-15T03:51:24.194Z,6.32
2022-11-15T03:53:51.598Z,5.40
2022-11-15T03:56:18.392Z,6.45
2022-11-15T03:58:45.185Z,5.80
2022-11-15T04:01:12.073Z,8.07
2022-11-15T04:03:39.015Z,7.88
2022-11-15T04:06:06.160Z,7.75
2022-11-15T04:08:33.034Z,7.25
2022-11-15T04:11:02.285Z,6.60
2022-11-15T04:13:29.693Z,6.38
2022-11-15T04:15:56.816Z,6.38
2022-11-15T04:18:23.698Z,6.18
2022-11-15T04:21:08.947Z,6.22
2022-11-15T04:23:54.211Z,5.95
2022-11-15T04:26:23.519Z,5.78
2022-11-15T04:29:08.696Z,5.70
2022-11-15T04:31:35.746Z,6.50
2022-11-15T04:34:02.532Z,6.35
2022-11-15T04:36:47.890Z,6.97
2022-11-15T04:39:14.794Z,5.68
2022-11-15T04:41:41.688Z,5.80
2022-11-15T04:44:08.675Z,7.15
2022-11-15T04:46:35.493Z,6.68
2022-11-15T04:49:02.390Z,8.70
2022-11-15T04:51:29.227Z,11.05
2022-11-15T04:53:56.065Z,9.77
2022-11-15T04:56:22.847Z,8.43
2022-11-15T04:58:52.677Z,7.70
2022-11-15T05:01:19.576Z,8.18
2022-11-15T05:04:04.873Z,6.63
2022-11-15T05:06:32.150Z,5.88
2022-11-15T05:08:59.342Z,5.55
2022-11-15T05:11:27.852Z,5.90
2022-11-15T05:13:54.871Z,5.28
2022-11-15T05:16:21.741Z,5.50
2022-11-15T05:18:52.578Z,5.13
2022-11-15T05:21:19.927Z,5.22
2022-11-15T05:23:46.884Z,5.13
2022-11-15T05:26:15.851Z,6.40
2022-11-15T05:28:42.803Z,5.40
2022-11-15T05:31:15.289Z,5.07
2022-11-15T05:33:43.494Z,5.07
2022-11-15T05:36:36.648Z,5.65
2022-11-15T05:39:05.911Z,5.45
2022-11-15T05:41:41.462Z,5.68
2022-11-15T05:44:11.281Z,5.60
2022-11-15T05:46:40.408Z,5.22
2022-11-15T05:49:10.273Z,6.07
2022-11-15T05:51:37.272Z,6.18
2022-11-15T05:54:04.385Z,6.72
2022-11-15T05:56:31.557Z,6.18
2022-11-15T05:59:00.171Z,12.60
2022-11-15T06:01:28.754Z,10.48
2022-11-15T06:03:55.877Z,11.70
2022-11-15T06:06:22.815Z,10.10
2022-11-15T06:08:49.633Z,10.95
2022-11-15T06:11:16.547Z,11.32
2022-11-15T06:13:43.385Z,11.93
2022-11-15T06:16:10.275Z,11.77
2022-11-15T06:18:37.744Z,10.45
2022-11-15T06:21:05.499Z,12.55
2022-11-15T06:23:36.246Z,12.50
2022-11-15T06:26:03.903Z,12.88
2022-11-15T06:28:32.823Z,11.02
2022-11-15T06:31:07.461Z,9.27
2022-11-15T06:33:34.741Z,7.05
2022-11-15T06:36:07.181Z,6.75
2022-11-15T06:41:05.984Z,6.35
2022-11-15T06:43:33.318Z,6.95
2022-11-15T06:46:01.543Z,7.85
2022-11-15T06:48:29.287Z,7.38
2022-11-15T06:51:00.926Z,7.90
2022-11-15T06:53:28.617Z,7.95
2022-11-15T06:56:00.619Z,8.02
2022-11-15T06:58:27.845Z,8.52
2022-11-15T07:00:55.306Z,8.02
2022-11-15T07:03:22.184Z,8.45
2022-11-15T07:05:54.584Z,10.30
2022-11-15T07:08:22.719Z,12.18
2022-11-15T07:10:49.751Z,9.57
2022-11-15T07:13:16.881Z,9.88
2022-11-15T07:15:43.781Z,9.82
2022-11-15T07:18:10.791Z,8.00
2022-11-15T07:20:37.761Z,9.50
2022-11-15T07:23:06.055Z,10.23
2022-11-15T07:25:33.402Z,9.35
2022-11-15T07:28:01.351Z,9.65
2022-11-15T07:30:29.219Z,9.95
2022-11-15T07:32:57.691Z,9.15
2022-11-15T07:35:25.629Z,10.05
2022-11-15T07:38:01.053Z,9.30
2022-11-15T07:40:29.515Z,9.23
2022-11-15T07:43:07.301Z,9.45
2022-11-15T07:45:37.023Z,9.65
2022-11-15T07:48:04.061Z,10.32
2022-11-15T07:50:32.140Z,10.50
2022-11-15T07:53:00.964Z,11.27
2022-11-15T07:55:30.283Z,10.48
2022-11-15T07:58:05.054Z,11.85
2022-11-15T08:00:32.209Z,11.40
2022-11-15T08:03:09.986Z,10.80
2022-11-15T08:05:38.754Z,10.77
2022-11-15T08:08:06.592Z,11.50
2022-11-15T08:10:40.305Z,10.85
2022-11-15T08:13:10.082Z,11.10
2022-11-15T08:15:37.878Z,11.23
2022-11-15T08:18:10.688Z,9.93
2022-11-15T08:20:37.651Z,10.43
2022-11-15T08:23:05.669Z,9.48
2022-11-15T08:25:34.329Z,9.10
2022-11-15T08:28:04.135Z,9.45
2022-11-15T08:30:31.851Z,9.77
2022-11-15T08:32:59.777Z,10.82
2022-11-15T08:35:29.221Z,9.90
2022-11-15T08:37:56.425Z,8.73
2022-11-15T08:40:23.878Z,9.75
2022-11-15T08:42:50.726Z,9.82
2022-11-15T08:45:17.599Z,10.30
2022-11-15T08:47:47.351Z,9.20
2022-11-15T08:52:43.957Z,8.02
2022-11-15T08:55:10.940Z,8.93
2022-11-15T08:57:37.821Z,10.23
2022-11-15T09:00:05.556Z,8.68
2022-11-15T09:02:32.399Z,9.18
2022-11-15T09:04:59.540Z,9.23
2022-11-15T09:07:26.469Z,8.52
2022-11-15T09:09:53.323Z,8.02
2022-11-15T09:12:20.230Z,8.40
2022-11-15T09:14:47.114Z,7.78
2022-11-15T09:17:13.909Z,8.32
2022-11-15T09:19:40.856Z,9.13
2022-11-15T09:22:08.891Z,8.40
2022-11-15T09:24:36.493Z,7.60
2022-11-15T09:27:03.468Z,8.15
2022-11-15T09:29:30.427Z,8.27
2022-11-15T09:31:57.269Z,7.93
2022-11-15T09:34:24.106Z,8.25
2022-11-15T09:36:51.097Z,7.18
2022-11-15T09:39:17.997Z,7.22
2022-11-15T09:41:56.947Z,6.50
2022-11-15T09:44:48.229Z,5.43
2022-11-15T09:47:37.837Z,6.53
2022-11-15T09:50:12.143Z,6.00
2022-11-15T09:52:42.564Z,4.70
2022-11-15T09:55:14.650Z,4.50
2022-11-15T09:58:06.722Z,4.40
2022-11-15T10:00:47.485Z,4.20
2022-11-15T10:03:19.229Z,3.87
2022-11-15T10:05:48.716Z,3.95
2022-11-15T10:08:43.425Z,3.80
2022-11-15T10:11:42.250Z,3.88
2022-11-15T10:14:24.820Z,3.30
2022-11-15T10:17:03.728Z,3.15
2022-11-15T10:20:07.529Z,3.63
2022-11-15T10:22:51.636Z,2.70
2022-11-15T10:25:20.788Z,3.35
2022-11-15T10:27:55.375Z,3.45
2022-11-15T10:30:23.090Z,4.28
2022-11-15T10:32:50.657Z,4.13
2022-11-15T10:35:31.156Z,3.78
2022-11-15T10:38:10.653Z,3.55
2022-11-15T10:40:39.208Z,3.72
2022-11-15T10:43:10.432Z,3.95
2022-11-15T10:45:39.268Z,3.53
2022-11-15T10:48:15.522Z,2.50
2022-11-15T10:50:44.718Z,2.58
2022-11-15T10:53:33.957Z,2.20
2022-11-15T10:56:05.207Z,2.45
2022-11-15T10:58:50.985Z,2.47
2022-11-15T11:01:24.772Z,2.55
2022-11-15T11:04:09.571Z,2.65
2022-11-15T11:06:57.659Z,2.53
2022-11-15T11:09:38.480Z,2.92
2022-11-15T11:12:10.971Z,3.25
2022-11-15T11:14:40.247Z,2.85
2022-11-15T11:17:24.418Z,2.72
2022-11-15T11:20:02.750Z,2.63
2022-11-15T11:22:43.434Z,2.25
2022-11-15T11:25:25.857Z,2.72
2022-11-15T11:28:19.398Z,2.83
2022-11-15T11:31:12.433Z,2.25
2022-11-15T11:33:46.145Z,2.35
2022-11-15T11:36:28.136Z,2.55
2022-11-15T11:39:18.157Z,2.55
2022-11-15T11:41:54.316Z,2.75
2022-11-15T11:44:34.027Z,2.30
2022-11-15T11:47:21.891Z,2.63
2022-11-15T11:50:15.019Z,1.98
2022-11-15T11:52:50.901Z,2.13
2022-11-15T11:55:45.322Z,2.38
2022-11-15T11:58:23.445Z,2.20
2022-11-15T12:01:16.126Z,2.13
2022-11-15T12:03:51.975Z,2.85
2022-11-15T12:06:41.554Z,2.42
2022-11-15T12:09:21.848Z,2.80
2022-11-15T12:12:13.690Z,2.15
2022-11-15T12:14:50.952Z,2.67
2022-11-15T12:17:21.853Z,2.20
2022-11-15T12:19:49.058Z,2.17
2022-11-15T12:22:45.041Z,1.70
2022-11-15T12:25:51.573Z,2.58
2022-11-15T12:29:05.823Z,2.35
2022-11-15T12:31:44.832Z,2.28
2022-11-15T12:34:23.870Z,1.88
2022-11-15T12:36:52.210Z,2.05
2022-11-15T12:39:20.365Z,2.10
2022-11-15T12:41:52.976Z,1.90
2022-11-15T12:44:32.129Z,2.75
2022-11-15T12:46:58.987Z,2.13
2022-11-15T12:49:28.951Z,1.98
2022-11-15T12:51:58.775Z,1.90
2022-11-15T12:54:25.645Z,1.88
2022-11-15T12:57:04.788Z,2.13
2022-11-15T12:59:50.578Z,1.95
2022-11-15T13:02:23.245Z,1.98
2022-11-15T13:04:52.142Z,2.33
2022-11-15T13:07:43.234Z,2.00
2022-11-15T13:10:13.256Z,1.88
2022-11-15T13:12:46.012Z,1.73
2022-11-15T13:15:12.871Z,2.00
2022-11-15T13:17:47.982Z,1.60
2022-11-15T13:20:17.489Z,1.98
2022-11-15T13:23:05.387Z,1.65
2022-11-15T13:25:56.844Z,1.95
2022-11-15T13:28:45.288Z,2.27
2022-11-15T13:31:27.230Z,2.38
2022-11-15T13:33:57.818Z,2.13
2022-11-15T13:36:27.750Z,2.25
2022-11-15T13:39:01.145Z,2.30
2022-11-15T13:41:30.872Z,2.15
2022-11-15T13:43:59.066Z,2.13
2022-11-15T13:46:36.109Z,1.88
2022-11-15T13:49:05.611Z,2.20
2022-11-15T13:51:49.038Z,2.03
2022-11-15T13:54:30.926Z,2.00
2022-11-15T13:57:11.632Z,2.10
2022-11-15T13:59:47.553Z,2.15
2022-11-15T14:02:21.490Z,2.20
2022-11-15T14:04:56.054Z,2.40
2022-11-15T14:07:26.148Z,2.42
2022-11-15T14:09:53.671Z,2.33
2022-11-15T14:12:31.015Z,2.63
2022-11-15T14:14:59.679Z,2.75
2022-11-15T14:17:29.485Z,2.33
2022-11-15T14:19:57.649Z,2.53
2022-11-15T14:22:30.008Z,2.83
2022-11-15T14:25:20.133Z,2.72
2022-11-15T14:28:14.191Z,2.38
2022-11-15T14:30:42.445Z,2.30
2022-11-15T14:33:30.244Z,2.55
2022-11-15T14:35:59.014Z,2.25
2022-11-15T14:38:26.840Z,2.47
2022-11-15T14:40:55.042Z,2.65
2022-11-15T14:43:21.918Z,3.15
2022-11-15T14:45:49.002Z,2.42
2022-11-15T14:48:15.891Z,2.80
2022-11-15T14:50:42.899Z,2.85
2022-11-15T14:53:14.495Z,3.10
2022-11-15T14:55:41.561Z,3.03
2022-11-15T14:58:09.121Z,2.97
2022-11-15T15:00:40.702Z,3.65
2022-11-15T15:03:08.484Z,3.33
2022-11-15T15:05:43.964Z,4.13
2022-11-15T15:08:11.744Z,4.40
2022-11-15T15:10:44.491Z,3.53
2022-11-15T15:13:23.679Z,3.15
2022-11-15T15:15:51.991Z,3.92
2022-11-15T15:18:28.577Z,4.03
2022-11-15T15:21:01.175Z,4.00
2022-11-15T15:23:30.268Z,4.35
2022-11-15T15:25:57.592Z,4.85
2022-11-15T15:28:24.434Z,3.92
2022-11-15T15:30:51.320Z,4.20
2022-11-15T15:33:18.127Z,4.47
2022-11-15T15:35:45.340Z,4.20
2022-11-15T15:38:13.580Z,4.80
2022-11-15T15:40:40.543Z,5.75
2022-11-15T15:43:09.966Z,4.75
2022-11-15T15:45:40.467Z,5.18
2022-11-15T15:48:11.974Z,7.20
2022-11-15T15:50:39.473Z,6.15
2022-11-15T15:53:11.629Z,5.60
2022-11-15T15:55:38.924Z,6.78
2022-11-15T15:58:06.545Z,6.45
2022-11-15T16:00:35.128Z,7.13
2022-11-15T16:03:01.978Z,8.35
2022-11-15T16:05:29.090Z,10.32
2022-11-15T16:07:55.938Z,10.93
2022-11-15T16:10:28.618Z,11.23
2022-11-15T16:12:57.164Z,11.32
2022-11-15T16:15:26.746Z,11.20
2022-11-15T16:17:56.026Z,11.00
2022-11-15T16:20:34.460Z,14.68
2022-11-15T16:23:07.548Z,17.45
2022-11-15T16:25:49.138Z,18.90
2022-11-15T16:28:17.805Z,21.48
2022-11-15T16:30:44.837Z,13.45
2022-11-15T16:33:11.693Z,14.35
2022-11-15T16:35:38.587Z,12.32
2022-11-15T16:38:05.435Z,12.27
2022-11-15T16:40:36.055Z,10.40
2022-11-15T16:43:04.523Z,11.20
2022-11-15T16:45:32.063Z,10.95
2022-11-15T16:47:58.963Z,12.85
2022-11-15T16:50:28.489Z,16.05
2022-11-15T16:52:57.486Z,14.43
2022-11-15T16:55:28.094Z,15.52
2022-11-15T16:57:57.970Z,16.67
2022-11-15T17:00:25.755Z,17.70
2022-11-15T17:02:53.374Z,18.58
2022-11-15T17:05:22.467Z,15.18
2022-11-15T17:07:52.392Z,21.08
2022-11-15T17:10:19.418Z,21.00
2022-11-15T17:12:46.390Z,20.27
2022-11-15T17:15:13.842Z,20.13
2022-11-15T17:17:41.352Z,25.08
2022-11-15T17:20:15.372Z,24.80
2022-11-15T17:22:42.510Z,21.65
2022-11-15T17:25:09.972Z,21.92
2022-11-15T17:27:36.930Z,21.27
2022-11-15T17:30:04.508Z,21.60
2022-11-15T17:32:31.378Z,21.48
2022-11-15T17:34:58.266Z,20.90
2022-11-15T17:37:25.105Z,18.02
2022-11-15T17:39:51.921Z,20.25
2022-11-15T17:42:18.874Z,20.52
2022-11-15T17:44:45.775Z,18.08
2022-11-15T17:47:12.594Z,16.70
2022-11-15T17:49:40.913Z,19.52
2022-11-15T17:52:08.099Z,19.75
2022-11-15T17:54:35.211Z,18.42
2022-11-15T17:57:02.035Z,18.05
2022-11-15T17:59:28.987Z,15.98
2022-11-15T18:01:55.785Z,14.73
2022-11-15T18:04:28.174Z,16.25
2022-11-15T18:06:56.520Z,15.13
2022-11-15T18:09:24.807Z,13.75
2022-11-15T18:11:53.542Z,13.02
2022-11-15T18:14:20.831Z,11.25
2022-11-15T18:16:47.648Z,11.40
2022-11-15T18:19:15.253Z,11.23
2022-11-15T18:21:56.825Z,17.00
2022-11-15T18:24:34.888Z,18.08
2022-11-15T18:27:03.736Z,12.43
2022-11-15T18:29:31.043Z,13.13
2022-11-15T18:31:59.038Z,16.48
2022-11-15T18:37:18.751Z,18.10
2022-11-15T18:39:49.665Z,22.27
2022-11-15T18:42:19.466Z,20.17
2022-11-15T18:44:46.418Z,20.90
2022-11-15T18:47:13.513Z,18.83
2022-11-15T18:49:40.361Z,19.33
2022-11-15T18:52:08.472Z,19.23
2022-11-15T18:54:35.384Z,17.85
2022-11-15T18:57:02.314Z,19.10
2022-11-15T18:59:29.716Z,17.15
2022-11-15T19:01:56.969Z,16.05
2022-11-15T19:04:23.942Z,17.40
2022-11-15T19:06:51.456Z,16.80
2022-11-15T19:09:19.375Z,16.90
2022-11-15T19:11:47.645Z,17.25
2022-11-15T19:14:16.469Z,17.30
2022-11-15T19:16:52.240Z,16.42
2022-11-15T19:19:25.020Z,14.32
2022-11-15T19:21:52.504Z,11.82
2022-11-15T19:24:19.904Z,9.57
2022-11-15T19:26:47.167Z,8.80
2022-11-15T19:29:14.261Z,8.00
2022-11-15T19:31:42.145Z,8.38
2022-11-15T19:34:09.589Z,9.32
2022-11-15T19:36:43.717Z,9.75
2022-11-15T19:39:13.335Z,10.52
2022-11-15T19:41:42.857Z,10.07
2022-11-15T19:44:11.261Z,10.90
2022-11-15T19:46:38.699Z,12.32
2022-11-15T19:49:07.902Z,11.77
2022-11-15T19:51:34.954Z,11.85
2022-11-15T19:54:06.773Z,11.55
2022-11-15T19:56:34.874Z,11.18
2022-11-15T19:59:02.254Z,10.88
2022-11-15T20:01:31.837Z,10.05
2022-11-15T20:04:00.289Z,11.88
2022-11-15T20:06:30.308Z,11.23
2022-11-15T20:08:58.086Z,10.27
2022-11-15T20:11:25.897Z,9.50
2022-11-15T20:14:02.181Z,11.55
2022-11-15T20:16:29.339Z,12.52
2022-11-15T20:18:56.194Z,12.73
2022-11-15T20:21:24.075Z,10.70
2022-11-15T20:23:51.836Z,12.10
2022-11-15T20:26:22.168Z,11.50
2022-11-15T20:28:49.457Z,12.00
2022-11-15T20:31:16.980Z,11.60
2022-11-15T20:33:44.338Z,12.35
2022-11-15T20:36:13.720Z,10.68
2022-11-15T20:38:40.829Z,12.00
2022-11-15T20:41:07.917Z,10.77
2022-11-15T20:43:35.020Z,9.00
2022-11-15T20:46:01.979Z,8.95
2022-11-15T20:48:29.188Z,8.48
2022-11-15T20:51:12.800Z,8.63
2022-11-15T20:53:40.598Z,8.02
2022-11-15T20:56:13.532Z,8.40
2022-11-15T20:58:41.067Z,8.02
2022-11-15T21:01:10.807Z,9.52
2022-11-15T21:03:38.163Z,10.05
2022-11-15T21:06:05.331Z,10.98
2022-11-15T21:08:52.566Z,9.38
2022-11-15T21:14:23.407Z,7.40
2022-11-15T21:16:50.420Z,8.05
2022-11-15T21:19:19.062Z,7.82
2022-11-15T21:21:47.588Z,6.40
2022-11-15T21:24:14.531Z,7.32
2022-11-15T21:26:41.518Z,6.85
2022-11-15T21:29:08.465Z,7.15
2022-11-15T21:31:35.373Z,6.72
2022-11-15T21:34:03.173Z,6.78
2022-11-15T21:36:30.571Z,7.38
2022-11-15T21:38:57.526Z,7.30
2022-11-15T21:41:24.353Z,7.50
2022-11-15T21:43:51.260Z,7.55
2022-11-15T21:46:19.224Z,8.07
2022-11-15T21:48:46.140Z,8.23
2022-11-15T21:51:13.324Z,8.27
2022-11-15T21:53:41.003Z,9.60
2022-11-15T21:56:08.340Z,10.02
2022-11-15T21:58:36.194Z,7.57
2022-11-15T22:01:21.973Z,8.02
2022-11-15T22:03:48.992Z,7.82
2022-11-15T22:06:18.267Z,7.38
2022-11-15T22:08:46.425Z,8.05
2022-11-15T22:11:14.524Z,7.00
2022-11-15T22:13:41.674Z,7.28
2022-11-15T22:16:09.353Z,7.10
2022-11-15T22:18:36.753Z,6.88
2022-11-15T22:21:06.636Z,8.25
2022-11-15T22:23:34.512Z,7.30
2022-11-15T22:26:01.681Z,7.55
2022-11-15T22:28:29.566Z,7.47
2022-11-15T22:30:57.533Z,7.75
2022-11-15T22:33:28.372Z,8.52
2022-11-15T22:35:56.269Z,7.80
2022-11-15T22:38:24.249Z,7.80
2022-11-15T22:40:51.674Z,8.05
2022-11-15T22:43:21.602Z,9.00
2022-11-15T22:45:53.252Z,9.05
2022-11-15T22:48:21.721Z,8.10
2022-11-15T22:50:48.766Z,9.00
2022-11-15T22:53:15.625Z,8.43
2022-11-15T22:55:43.119Z,10.07
2022-11-15T22:58:10.488Z,8.75
2022-11-15T23:00:37.478Z,8.10
2022-11-15T23:03:04.448Z,8.02
2022-11-15T23:05:31.385Z,8.48
2022-11-15T23:07:58.279Z,8.32
2022-11-15T23:10:43.579Z,7.45
2022-11-15T23:13:18.996Z,8.25
2022-11-15T23:16:09.419Z,8.45
2022-11-15T23:18:38.629Z,9.13
2022-11-15T23:21:09.696Z,9.48
2022-11-15T23:23:36.802Z,9.10
2022-11-15T23:26:03.703Z,8.10
2022-11-15T23:28:32.926Z,8.65
2022-11-15T23:31:26.183Z,8.55
2022-11-15T23:33:59.365Z,8.02
2022-11-15T23:36:28.561Z,8.25
2022-11-15T23:38:56.709Z,7.90
2022-11-15T23:41:24.488Z,7.55
2022-11-15T23:43:52.332Z,8.38
2022-11-15T23:46:19.440Z,7.40
2022-11-15T23:48:46.618Z,8.27
2022-11-15T23:51:13.515Z,9.05
2022-11-15T23:53:40.548Z,8.98
2022-11-15T23:56:11.903Z,8.13
2022-11-15T23:58:38.866Z,7.88
